createdAt,value
2022-12-25T07:24:51.306Z,1.6
2022-12-25T07:27:51.548Z,1.4
2022-12-25T07:30:56.773Z,1.1
2022-12-25T07:33:51.989Z,1.1
2022-12-25T07:36:52.254Z,1.1
2022-12-25T07:39:52.436Z,1.2
2022-12-25T07:42:52.640Z,1.6
2022-12-25T07:45:52.916Z,2
2022-12-25T07:48:53.115Z,2.4
2022-12-25T07:51:53.357Z,2.8
2022-12-25T07:54:53.578Z,3.3
2022-12-25T07:57:53.822Z,4
2022-12-25T08:00:54.214Z,4.7
2022-12-25T08:03:54.464Z,5.2
2022-12-25T08:06:54.467Z,5.7
2022-12-25T08:09:54.768Z,6.4
2022-12-25T08:12:54.939Z,7.3
2022-12-25T08:15:55.170Z,8.2
2022-12-25T08:18:55.372Z,9.2
2022-12-25T08:21:55.597Z,9.8
2022-12-25T08:24:55.851Z,10.4
2022-12-25T08:27:56.122Z,11.4
2022-12-25T08:30:56.384Z,12.3
2022-12-25T08:33:51.527Z,13.1
2022-12-25T08:36:51.727Z,13.9
2022-12-25T08:39:51.980Z,14.7
2022-12-25T08:42:52.219Z,15.5
2022-12-25T08:45:52.469Z,16.3
2022-12-25T08:48:52.667Z,16.8
2022-12-25T08:51:52.932Z,17.2
2022-12-25T08:54:53.104Z,17.7
2022-12-25T08:57:53.424Z,18.3
2022-12-25T09:00:53.610Z,19
2022-12-25T09:03:53.814Z,19.7
2022-12-25T09:06:54.033Z,20.4
2022-12-25T09:09:54.296Z,21.3
2022-12-25T09:12:54.485Z,21.9
2022-12-25T09:15:54.774Z,22.4
2022-12-25T09:18:54.912Z,22.4
2022-12-25T09:21:55.138Z,22.3
2022-12-25T09:24:55.372Z,22.2
2022-12-25T09:27:55.642Z,22
2022-12-25T09:30:55.908Z,21.8
2022-12-25T09:33:56.397Z,21.8
2022-12-25T09:36:56.280Z,22.2
2022-12-25T09:39:51.544Z,22.8
2022-12-25T09:42:51.778Z,24
2022-12-25T09:45:52.394Z,25.3
2022-12-25T09:48:52.219Z,27
2022-12-25T09:51:52.430Z,28.1
2022-12-25T09:54:52.782Z,28.6
2022-12-25T09:57:52.886Z,28.3
2022-12-25T10:00:53.091Z,27.4
2022-12-25T10:03:53.461Z,26.8
2022-12-25T10:06:53.571Z,26.4
2022-12-25T10:09:53.800Z,26
2022-12-25T10:12:54.044Z,25
2022-12-25T10:15:54.308Z,24.3
2022-12-25T10:18:54.484Z,24.1
2022-12-25T10:21:54.720Z,24.1
2022-12-25T10:24:54.941Z,24.8
2022-12-25T10:27:55.180Z,25.4
2022-12-25T10:30:55.434Z,25.6
2022-12-25T10:33:55.579Z,24.9
2022-12-25T10:36:55.819Z,23.9
2022-12-25T10:39:56.078Z,22.6
2022-12-25T10:42:56.319Z,21.3
2022-12-25T10:45:56.589Z,20.3
2022-12-25T10:48:51.741Z,19.5
2022-12-25T10:51:51.981Z,18.8
2022-12-25T10:54:52.171Z,18.3
2022-12-25T10:57:52.403Z,18
2022-12-25T11:00:52.638Z,17.9
2022-12-25T11:03:52.922Z,18.6
2022-12-25T11:06:53.111Z,19.5
2022-12-25T11:09:54.625Z,20.7
2022-12-25T11:12:53.597Z,21
2022-12-25T11:15:53.820Z,20.5
2022-12-25T11:18:54.021Z,20.4
2022-12-25T11:21:54.243Z,20.5
2022-12-25T11:24:54.445Z,20.5
2022-12-25T11:27:54.688Z,20
2022-12-25T11:30:54.959Z,20.6
2022-12-25T11:33:55.210Z,21.6
2022-12-25T11:36:55.378Z,23.8
2022-12-25T11:39:55.584Z,25.8
2022-12-25T11:42:55.835Z,27.1
2022-12-25T11:45:56.048Z,28.4
2022-12-25T11:48:56.302Z,29.6
2022-12-25T11:51:51.502Z,30.7
2022-12-25T11:54:51.738Z,30.6
2022-12-25T11:57:51.937Z,29.6
2022-12-25T12:00:52.169Z,28
2022-12-25T12:03:52.538Z,26.7
2022-12-25T12:06:52.615Z,25.4
2022-12-25T12:09:52.881Z,25
2022-12-25T12:12:53.158Z,25.2
2022-12-25T12:15:53.365Z,25.4
2022-12-25T12:18:53.560Z,25.1
2022-12-25T12:21:53.772Z,24.7
2022-12-25T12:24:54.015Z,24.9
2022-12-25T12:27:56.327Z,26.1
2022-12-25T12:30:54.441Z,27.6
2022-12-25T12:33:55.044Z,28.1
2022-12-25T12:36:54.919Z,28.1
2022-12-25T12:39:55.159Z,28
2022-12-25T12:42:55.399Z,28.7
2022-12-25T12:45:55.690Z,29.6
2022-12-25T12:48:50.827Z,29.7
2022-12-25T12:51:51.078Z,28.8
2022-12-25T12:54:51.272Z,27.6
2022-12-25T12:57:51.506Z,27
2022-12-25T13:00:51.771Z,26.6
2022-12-25T13:03:51.975Z,26.3
2022-12-25T13:06:52.188Z,25.8
2022-12-25T13:09:52.409Z,25.2
2022-12-25T13:12:52.592Z,24.8
2022-12-25T13:15:52.834Z,24.7
2022-12-25T13:18:53.101Z,24.4
2022-12-25T13:21:53.304Z,23.6
2022-12-25T13:24:53.535Z,22.9
2022-12-25T13:27:53.762Z,21.9
2022-12-25T13:30:53.992Z,20.6
2022-12-25T13:33:54.202Z,19.3
2022-12-25T13:36:54.413Z,17.8
2022-12-25T13:39:54.749Z,16.1
2022-12-25T13:42:54.897Z,14.5
2022-12-25T13:45:55.211Z,13
2022-12-25T13:48:55.322Z,11.6
2022-12-25T13:51:55.580Z,10.5
2022-12-25T13:54:50.776Z,9.7
2022-12-25T13:57:56.020Z,9
2022-12-25T14:00:56.304Z,8.2
2022-12-25T14:03:56.513Z,7.6
2022-12-25T14:06:51.740Z,7.2
2022-12-25T14:09:51.926Z,6.8
2022-12-25T14:12:52.129Z,6.3
2022-12-25T14:15:52.350Z,5.9
2022-12-25T14:18:52.619Z,5.6
2022-12-25T14:21:52.820Z,5.4
2022-12-25T14:24:53.049Z,5.2
2022-12-25T14:27:53.295Z,5
2022-12-25T14:30:58.587Z,4.7
2022-12-25T14:33:53.725Z,4.4
2022-12-25T14:36:53.955Z,4.2
2022-12-25T14:39:54.221Z,3.8
2022-12-25T14:42:54.433Z,3.5
2022-12-25T14:45:54.723Z,3.2
2022-12-25T14:48:54.865Z,2.9
2022-12-25T14:51:55.092Z,2.6
2022-12-25T14:54:55.331Z,2.3
2022-12-25T14:57:55.614Z,2
2022-12-25T15:00:55.880Z,1.7
2022-12-25T15:03:56.109Z,1.5
2022-12-25T15:06:51.326Z,1.5
2022-12-25T15:10:27.204Z,1.5
2022-12-25T15:12:51.676Z,1.5
2022-12-25T15:15:56.993Z,1.5
2022-12-25T15:18:52.160Z,1.5
2022-12-25T15:21:52.384Z,1.5
2022-12-25T15:24:58.833Z,1.5
2022-12-25T15:27:52.811Z,1.5
2022-12-25T15:30:58.089Z,1.5
2022-12-25T15:33:53.276Z,1.5
2022-12-25T15:36:53.480Z,1.5
2022-12-25T15:39:53.748Z,1.5
2022-12-25T15:42:56.537Z,1.5
2022-12-25T15:45:54.202Z,1.5
2022-12-25T15:48:54.389Z,1.5
2022-12-25T15:51:59.782Z,1.5
2022-12-25T15:54:54.859Z,1.5
2022-12-25T15:57:55.099Z,1.5
2022-12-25T16:00:55.298Z,1.5
2022-12-25T16:03:55.636Z,1.5
